Timpas, Colorado
Current Conditions -  °F | °C
As of 8:53 PM on Sunday 25 Jan 2015 (Local Time) from KLHX Reporting Station
Clear Clear  
Wind Chill: 32°   Ceiling: Unl
Heat Index: 39°   Visibility: 10mi
Dew Point: 31°   Wind: 10mph
Humidity: 73%   Direction: 250°WSW
Pressure: 30.18"   Gusts: NA
Location:  37.8368°N, 103.544°W
Report Text: KLHX 260353Z AUTO 25009KT 10SM CLR 04/M01 A3018 RMK AO2 SLP220 T00391006 $
Loading
Personal Weather Stations






























Interactive Weather Map New forecast layout! Learn more

10-Day Weather Forecast

Advertisements
Track Severe Weather on mobile